Time;durP1;ratioP1;P1;durP2;ratioP2;P2;SDS_P1;SDS_P2;PMS_P1;PMS_P2;Temp;Humidity;BMP_temperature;BMP_pressure;BME280_temperature;BME280_humidity;BME280_pressure;Samples;Min_cycle;Max_cycle;Signal;HPM_P1;HPM_P2
2022/04/19 00:01:04;;;;;;;;;;;7.40;72.10;;;;;;5077291;28;19923;-75
2022/04/19 00:03:30;;;;;;;;;;;7.60;71.30;;;;;;5077050;28;19920;-75
2022/04/19 00:05:56;;;;;;;;;;;7.90;70.80;;;;;;5060305;28;19920;-74
2022/04/19 00:08:21;;;;;;;;;;;7.90;70.10;;;;;;5076930;28;19920;-74
2022/04/19 00:10:47;;;;;;;;;;;7.90;69.90;;;;;;5060380;28;20378;-75
2022/04/19 00:13:15;;;;;;;;;;;8.00;69.30;;;;;;5060340;28;19920;-77
2022/04/19 00:15:41;;;;;;;;;;;8.00;69.00;;;;;;5094822;28;20362;-76
2022/04/19 00:18:07;;;;;;;;;;;8.00;69.00;;;;;;5060349;28;19920;-76
2022/04/19 00:20:33;;;;;;;;;;;8.00;68.60;;;;;;5076970;28;20282;-76
2022/04/19 00:22:59;;;;;;;;;;;8.10;68.10;;;;;;5076994;28;19999;-77
2022/04/19 00:25:25;;;;;;;;;;;8.20;67.90;;;;;;5060282;28;19959;-75
2022/04/19 00:27:51;;;;;;;;;;;8.20;67.80;;;;;;5076792;28;20014;-75
2022/04/19 00:30:16;;;;;;;;;;;8.40;68.40;;;;;;5076735;28;20010;-76
2022/04/19 00:32:42;;;;;;;;;;;8.10;67.90;;;;;;5076764;28;20297;-75
2022/04/19 00:35:09;;;;;;;;;;;8.10;67.90;;;;;;5076735;28;19959;-75
2022/04/19 00:37:35;;;;;;;;;;;8.00;67.50;;;;;;5059905;28;19920;-76
2022/04/19 00:40:01;;;;;;;;;;;8.00;68.30;;;;;;5059917;28;19927;-75
2022/04/19 00:42:31;;;;;;;;;;;7.90;68.30;;;;;;5059895;28;19920;-76
2022/04/19 00:45:02;;;;;;;;;;;7.90;68.60;;;;;;5075596;28;19975;-74
2022/04/19 00:47:28;;;;;;;;;;;7.80;68.30;;;;;;5076655;28;19969;-75
2022/04/19 00:49:53;;;;;;;;;;;7.80;67.40;;;;;;5059429;28;19924;-76
2022/04/19 00:52:19;;;;;;;;;;;7.80;67.80;;;;;;5076319;28;19926;-77
2022/04/19 00:54:48;;;;;;;;;;;7.80;67.10;;;;;;5059911;28;19924;-76
2022/04/19 00:57:14;;;;;;;;;;;7.70;68.30;;;;;;5078291;28;19975;-73
2022/04/19 00:59:40;;;;;;;;;;;7.70;68.10;;;;;;5080094;28;19965;-72
2022/04/19 01:02:06;;;;;;;;;;;7.60;68.10;;;;;;5061618;28;19966;-74
2022/04/19 01:04:32;;;;;;;;;;;7.70;69.00;;;;;;5076830;28;20270;-73
2022/04/19 01:06:57;;;;;;;;;;;7.50;69.20;;;;;;5076295;28;19920;-74
2022/04/19 01:09:23;;;;;;;;;;;7.40;69.50;;;;;;5075879;28;20320;-73
2022/04/19 01:14:36;;;;;;;;;;;7.30;70.00;;;;;;5076128;28;19927;-74
2022/04/19 01:17:08;;;;;;;;;;;7.20;69.90;;;;;;5075882;28;19920;-74
2022/04/19 01:19:39;;;;;;;;;;;7.20;70.10;;;;;;5059406;28;19927;-75
2022/04/19 01:22:06;;;;;;;;;;;7.10;69.90;;;;;;5059324;28;19920;-75
2022/04/19 01:24:32;;;;;;;;;;;7.10;70.80;;;;;;5076054;28;19963;-75
2022/04/19 01:26:58;;;;;;;;;;;7.00;70.80;;;;;;5076082;28;19920;-74
2022/04/19 01:29:24;;;;;;;;;;;7.00;70.80;;;;;;5059282;28;19920;-75
2022/04/19 01:31:51;;;;;;;;;;;7.00;70.90;;;;;;5075387;28;19927;-74
2022/04/19 01:34:18;;;;;;;;;;;6.90;70.80;;;;;;5059285;28;19966;-74
2022/04/19 01:36:43;;;;;;;;;;;6.90;70.40;;;;;;5075910;28;20382;-74
2022/04/19 01:39:10;;;;;;;;;;;6.90;69.90;;;;;;5059376;28;19920;-76
2022/04/19 01:41:36;;;;;;;;;;;7.00;69.60;;;;;;5075892;28;19975;-76
2022/04/19 01:44:04;;;;;;;;;;;7.00;69.90;;;;;;5058520;28;19978;-75
2022/04/19 01:46:31;;;;;;;;;;;7.00;70.00;;;;;;5054817;28;19920;-75
2022/04/19 01:48:57;;;;;;;;;;;7.00;70.60;;;;;;5055905;28;20247;-73
2022/04/19 01:51:24;;;;;;;;;;;7.10;68.80;;;;;;5055133;28;19966;-75
2022/04/19 01:53:49;;;;;;;;;;;6.90;70.00;;;;;;5055506;28;20370;-74
2022/04/19 01:56:15;;;;;;;;;;;6.90;69.40;;;;;;5055790;28;19932;-75
2022/04/19 01:58:41;;;;;;;;;;;6.90;71.10;;;;;;5055649;28;20379;-75
2022/04/19 02:01:07;;;;;;;;;;;6.80;71.30;;;;;;5055494;28;19974;-73
2022/04/19 02:03:34;;;;;;;;;;;6.80;71.30;;;;;;5039055;28;19920;-76
2022/04/19 02:06:00;;;;;;;;;;;6.80;70.20;;;;;;5055362;28;19928;-75
2022/04/19 02:08:26;;;;;;;;;;;6.70;71.10;;;;;;5056330;28;19990;-76
2022/04/19 02:10:52;;;;;;;;;;;6.70;71.90;;;;;;5042517;28;19920;-74
2022/04/19 02:13:18;;;;;;;;;;;6.70;72.10;;;;;;5042675;28;19931;-74
2022/04/19 02:15:45;;;;;;;;;;;6.70;72.50;;;;;;5042713;28;19920;-74
2022/04/19 02:18:10;;;;;;;;;;;6.60;72.70;;;;;;5058980;28;19921;-77
2022/04/19 02:20:36;;;;;;;;;;;6.60;70.70;;;;;;5059166;28;19929;-73
2022/04/19 02:23:02;;;;;;;;;;;6.50;72.30;;;;;;5059117;28;19920;-75
2022/04/19 02:25:28;;;;;;;;;;;6.50;72.70;;;;;;5059159;28;19966;-74
2022/04/19 02:27:54;;;;;;;;;;;6.40;72.80;;;;;;5045166;28;20304;-73
2022/04/19 02:30:19;;;;;;;;;;;6.40;72.30;;;;;;5063116;28;19983;-73
2022/04/19 02:32:49;;;;;;;;;;;6.40;73.30;;;;;;5043153;28;20282;-75
2022/04/19 02:35:17;;;;;;;;;;;6.30;73.20;;;;;;5042455;28;20236;-76
2022/04/19 02:37:53;;;;;;;;;;;6.30;73.00;;;;;;5058899;28;19920;-75
2022/04/19 02:40:19;;;;;;;;;;;6.30;73.80;;;;;;5058884;28;19925;-74
2022/04/19 02:42:45;;;;;;;;;;;6.30;74.40;;;;;;5042143;28;19927;-74
2022/04/19 02:45:12;;;;;;;;;;;6.20;74.20;;;;;;5041378;28;19920;-74
2022/04/19 02:47:38;;;;;;;;;;;6.20;74.50;;;;;;5058715;28;19920;-76
2022/04/19 02:50:04;;;;;;;;;;;6.20;75.10;;;;;;5041813;28;19928;-76
2022/04/19 02:52:29;;;;;;;;;;;6.20;75.70;;;;;;5042330;28;20385;-75
2022/04/19 02:54:55;;;;;;;;;;;6.10;75.80;;;;;;5058574;28;20021;-73
2022/04/19 02:57:20;;;;;;;;;;;6.10;76.20;;;;;;5058712;28;19920;-76
2022/04/19 02:59:46;;;;;;;;;;;6.40;76.30;;;;;;5058553;28;19927;-75
2022/04/19 03:02:12;;;;;;;;;;;6.10;76.50;;;;;;5058387;28;20309;-74
2022/04/19 03:04:38;;;;;;;;;;;6.00;76.80;;;;;;5041872;28;19964;-76
2022/04/19 03:07:05;;;;;;;;;;;6.00;76.40;;;;;;5041796;28;19927;-76
2022/04/19 03:09:31;;;;;;;;;;;6.00;75.20;;;;;;5058304;28;19921;-77
2022/04/19 03:11:57;;;;;;;;;;;6.00;75.90;;;;;;5058165;28;20277;-75
2022/04/19 03:14:23;;;;;;;;;;;6.10;74.30;;;;;;5041689;28;19920;-74
2022/04/19 03:16:49;;;;;;;;;;;6.10;76.40;;;;;;5058215;28;19920;-75
2022/04/19 03:19:14;;;;;;;;;;;6.20;75.70;;;;;;5041364;28;19927;-77
2022/04/19 03:21:40;;;;;;;;;;;6.10;75.90;;;;;;5041380;28;19924;-76
2022/04/19 03:29:34;;;;;;;;;;;6.00;77.00;;;;;;5057784;28;19964;-77
2022/04/19 03:32:00;;;;;;;;;;;6.00;77.40;;;;;;5040814;28;20382;-75
2022/04/19 03:34:26;;;;;;;;;;;6.10;75.60;;;;;;5057356;28;19970;-77
2022/04/19 03:36:52;;;;;;;;;;;6.00;75.50;;;;;;5057816;28;19967;-75
2022/04/19 03:39:18;;;;;;;;;;;6.00;76.40;;;;;;5057735;28;19974;-75
2022/04/19 03:41:44;;;;;;;;;;;6.20;76.10;;;;;;5057707;28;19920;-75
2022/04/19 03:44:11;;;;;;;;;;;5.90;76.10;;;;;;5057101;28;19926;-74
2022/04/19 03:47:07;;;;;;;;;;;6.00;76.30;;;;;;5040740;28;20348;-74
2022/04/19 03:49:24;;;;;;;;;;;6.20;75.70;;;;;;5057194;28;19969;-78
2022/04/19 03:51:49;;;;;;;;;;;5.90;76.50;;;;;;5057123;28;19920;-75
2022/04/19 03:54:15;;;;;;;;;;;5.90;76.60;;;;;;5040907;28;19925;-76
2022/04/19 03:56:41;;;;;;;;;;;5.90;75.40;;;;;;5062027;28;19927;-73
2022/04/19 03:59:09;;;;;;;;;;;5.80;76.50;;;;;;5046510;28;19967;-72
2022/04/19 04:01:36;;;;;;;;;;;5.80;76.90;;;;;;5041361;28;19932;-78
2022/04/19 04:04:06;;;;;;;;;;;5.70;76.90;;;;;;5057046;28;20286;-77
2022/04/19 04:06:35;;;;;;;;;;;5.70;76.90;;;;;;5057296;28;20525;-76
2022/04/19 04:09:01;;;;;;;;;;;5.60;77.20;;;;;;5056824;28;20027;-74
2022/04/19 04:11:27;;;;;;;;;;;5.70;77.20;;;;;;5039845;28;19999;-76
2022/04/19 04:13:53;;;;;;;;;;;5.60;75.10;;;;;;5040292;28;20003;-75
2022/04/19 04:16:18;;;;;;;;;;;5.90;76.30;;;;;;5040475;28;19920;-76
2022/04/19 04:18:44;;;;;;;;;;;5.70;76.40;;;;;;5040537;28;20053;-77
2022/04/19 04:21:09;;;;;;;;;;;5.60;76.10;;;;;;5056898;28;19920;-76
2022/04/19 04:23:35;;;;;;;;;;;5.60;76.50;;;;;;5056901;28;19931;-76
2022/04/19 04:26:01;;;;;;;;;;;5.80;76.30;;;;;;5040264;28;19920;-76
2022/04/19 04:28:26;;;;;;;;;;;5.60;74.60;;;;;;5040289;28;19970;-76
2022/04/19 04:30:52;;;;;;;;;;;5.60;75.30;;;;;;5039382;28;20370;-76
2022/04/19 04:33:17;;;;;;;;;;;5.60;76.50;;;;;;5056499;28;19932;-76
2022/04/19 04:35:43;;;;;;;;;;;5.60;76.40;;;;;;5056688;28;20294;-75
2022/04/19 04:38:09;;;;;;;;;;;5.60;77.10;;;;;;5074270;28;19920;-77
2022/04/19 04:40:34;;;;;;;;;;;5.80;77.50;;;;;;5056601;28;20351;-74
2022/04/19 04:43:00;;;;;;;;;;;5.60;77.20;;;;;;5056614;28;19920;-74
2022/04/19 04:45:26;;;;;;;;;;;5.60;77.10;;;;;;5057268;28;19932;-75
2022/04/19 04:50:36;;;;;;;;;;;5.60;77.50;;;;;;5071696;28;19934;-75
2022/04/19 04:53:05;;;;;;;;;;;5.60;78.60;;;;;;5081596;28;19904;-75
2022/04/19 04:55:31;;;;;;;;;;;5.60;78.10;;;;;;5080421;28;19904;-75
2022/04/19 04:57:59;;;;;;;;;;;5.60;78.00;;;;;;5080062;28;19941;-76
2022/04/19 05:00:27;;;;;;;;;;;5.60;78.20;;;;;;5058975;28;19920;-76
2022/04/19 05:02:53;;;;;;;;;;;5.90;77.30;;;;;;5041434;28;19920;-76
2022/04/19 05:05:19;;;;;;;;;;;5.70;78.50;;;;;;5056366;28;19943;-78
2022/04/19 05:07:44;;;;;;;;;;;5.70;78.70;;;;;;5039760;28;19943;-76
2022/04/19 05:10:10;;;;;;;;;;;6.10;78.50;;;;;;5039568;28;20029;-75
2022/04/19 05:12:36;;;;;;;;;;;5.80;78.60;;;;;;5039663;28;19925;-77
2022/04/19 05:15:02;;;;;;;;;;;6.00;77.40;;;;;;5056112;28;19926;-75
2022/04/19 05:17:29;;;;;;;;;;;6.00;77.90;;;;;;5062585;28;19928;-75
2022/04/19 05:19:55;;;;;;;;;;;6.00;77.80;;;;;;5074999;28;19920;-75
2022/04/19 05:22:21;;;;;;;;;;;6.00;77.10;;;;;;5065209;28;19927;-75
2022/04/19 05:24:47;;;;;;;;;;;6.20;78.80;;;;;;5059420;28;19927;-75
2022/04/19 05:27:12;;;;;;;;;;;6.30;79.30;;;;;;5075712;28;19920;-74
2022/04/19 05:29:38;;;;;;;;;;;6.40;79.30;;;;;;5059339;28;19920;-75
2022/04/19 05:32:04;;;;;;;;;;;6.60;80.40;;;;;;5075902;28;20342;-76
2022/04/19 05:34:29;;;;;;;;;;;6.80;79.60;;;;;;5059227;28;19920;-76
2022/04/19 05:36:55;;;;;;;;;;;7.10;78.40;;;;;;5058919;28;19927;-74
2022/04/19 05:39:20;;;;;;;;;;;7.20;79.60;;;;;;5058976;28;19974;-75
2022/04/19 05:41:46;;;;;;;;;;;7.40;78.50;;;;;;5057917;28;20392;-75
2022/04/19 05:44:12;;;;;;;;;;;7.60;78.90;;;;;;5079145;28;19920;-75
2022/04/19 05:46:40;;;;;;;;;;;7.70;78.90;;;;;;5079804;28;19920;-77
2022/04/19 05:49:14;;;;;;;;;;;7.90;78.40;;;;;;5064105;28;20278;-77
2022/04/19 05:51:42;;;;;;;;;;;8.10;78.80;;;;;;5079202;28;19920;-78
2022/04/19 05:54:10;;;;;;;;;;;8.30;78.20;;;;;;5079586;28;20027;-76
2022/04/19 05:56:35;;;;;;;;;;;8.50;77.70;;;;;;5061043;28;20378;-75
2022/04/19 05:59:01;;;;;;;;;;;9.00;76.50;;;;;;5078838;28;19920;-75
2022/04/19 06:04:51;;;;;;;;;;;8.90;76.10;;;;;;5079270;28;20010;-75
2022/04/19 06:06:56;;;;;;;;;;;9.40;73.80;;;;;;5079493;28;20287;-75
2022/04/19 06:09:22;;;;;;;;;;;9.50;72.00;;;;;;5096664;28;19920;-75
2022/04/19 06:11:47;;;;;;;;;;;9.80;71.60;;;;;;5078471;28;20328;-75
2022/04/19 06:14:13;;;;;;;;;;;9.90;70.70;;;;;;5078814;28;19920;-76
2022/04/19 06:16:38;;;;;;;;;;;10.10;69.20;;;;;;5078808;28;19924;-75
2022/04/19 06:19:04;;;;;;;;;;;10.30;67.50;;;;;;5062567;28;19927;-75
2022/04/19 06:21:30;;;;;;;;;;;10.50;68.20;;;;;;5079150;28;20381;-76
2022/04/19 06:23:55;;;;;;;;;;;10.60;65.90;;;;;;5079250;28;19974;-75
2022/04/19 06:26:21;;;;;;;;;;;10.90;66.70;;;;;;5079209;28;19927;-75
2022/04/19 06:28:57;;;;;;;;;;;11.00;67.80;;;;;;5079398;28;19963;-75
2022/04/19 06:31:22;;;;;;;;;;;11.30;66.10;;;;;;5078840;28;19934;-76
2022/04/19 06:33:48;;;;;;;;;;;11.40;64.30;;;;;;5061882;28;19919;-76
2022/04/19 06:36:13;;;;;;;;;;;11.50;63.10;;;;;;5078953;28;20003;-75
2022/04/19 06:38:41;;;;;;;;;;;11.70;62.50;;;;;;5080961;28;19945;-74
2022/04/19 06:41:11;;;;;;;;;;;11.80;63.60;;;;;;5080726;28;20255;-74
2022/04/19 06:43:37;;;;;;;;;;;12.00;61.50;;;;;;5062037;28;20290;-77
2022/04/19 06:46:02;;;;;;;;;;;12.20;60.50;;;;;;5078689;28;19920;-76
2022/04/19 06:48:29;;;;;;;;;;;12.20;60.90;;;;;;5061714;28;20370;-76
2022/04/19 06:50:55;;;;;;;;;;;12.40;60.20;;;;;;5045274;28;20368;-75
2022/04/19 06:53:20;;;;;;;;;;;12.40;59.20;;;;;;5078307;28;19919;-76
2022/04/19 06:55:46;;;;;;;;;;;12.70;60.00;;;;;;5060995;28;19920;-76
2022/04/19 06:58:11;;;;;;;;;;;12.80;58.90;;;;;;5078677;28;19920;-75
2022/04/19 07:00:37;;;;;;;;;;;13.00;62.80;;;;;;5061989;28;19919;-76
2022/04/19 07:03:02;;;;;;;;;;;13.20;63.50;;;;;;5061155;28;20010;-76
2022/04/19 07:05:28;;;;;;;;;;;13.20;63.60;;;;;;5061462;28;19919;-74
2022/04/19 07:07:56;;;;;;;;;;;13.20;65.00;;;;;;5061795;28;20290;-77
2022/04/19 07:10:22;;;;;;;;;;;13.40;64.70;;;;;;5080085;28;19919;-73
2022/04/19 07:12:51;;;;;;;;;;;13.40;65.20;;;;;;5060023;28;19928;-78
2022/04/19 07:15:44;;;;;;;;;;;13.50;65.20;;;;;;5078490;28;19942;-73
2022/04/19 07:18:13;;;;;;;;;;;13.50;62.00;;;;;;5075125;28;19964;-74
2022/04/19 07:28:52;;;;;;;;;;;13.80;58.90;;;;;;5101451;28;19964;-72
2022/04/19 07:31:17;;;;;;;;;;;14.00;60.50;;;;;;5084646;28;19904;-76
2022/04/19 07:33:43;;;;;;;;;;;14.00;59.60;;;;;;5101193;28;19969;-74
2022/04/19 07:36:08;;;;;;;;;;;14.10;58.20;;;;;;5064368;28;19924;-76
2022/04/19 07:38:34;;;;;;;;;;;14.30;57.80;;;;;;5075960;28;19927;-73
2022/04/19 07:41:00;;;;;;;;;;;14.20;54.80;;;;;;5060210;28;19920;-74
2022/04/19 07:43:25;;;;;;;;;;;14.40;54.20;;;;;;5065278;28;20285;-73
2022/04/19 07:45:51;;;;;;;;;;;14.40;53.30;;;;;;5084894;28;20061;-72
2022/04/19 07:48:18;;;;;;;;;;;14.50;52.90;;;;;;5067280;28;20286;-73
2022/04/19 07:50:44;;;;;;;;;;;14.60;51.40;;;;;;5081348;28;20331;-74
2022/04/19 07:53:10;;;;;;;;;;;14.50;51.50;;;;;;5084434;28;19970;-78
2022/04/19 07:55:36;;;;;;;;;;;14.50;51.30;;;;;;5083317;28;19924;-78
2022/04/19 07:58:02;;;;;;;;;;;14.60;52.30;;;;;;5084377;28;19934;-72
2022/04/19 08:00:27;;;;;;;;;;;14.70;52.40;;;;;;5093915;28;20332;-75
2022/04/19 08:02:57;;;;;;;;;;;14.80;52.40;;;;;;5079611;28;19920;-75
2022/04/19 08:05:23;;;;;;;;;;;14.80;50.90;;;;;;5063682;28;19920;-75
2022/04/19 08:07:49;;;;;;;;;;;14.70;51.70;;;;;;5083639;28;19924;-74
2022/04/19 08:10:15;;;;;;;;;;;14.70;51.40;;;;;;5062695;28;19920;-74
2022/04/19 08:12:48;;;;;;;;;;;14.90;50.60;;;;;;5058803;28;19927;-77
2022/04/19 08:15:14;;;;;;;;;;;14.80;51.40;;;;;;5083217;28;19920;-75
2022/04/19 08:17:39;;;;;;;;;;;14.80;50.80;;;;;;5076438;28;19927;-74
2022/04/19 08:20:05;;;;;;;;;;;14.80;51.40;;;;;;5060293;28;19973;-73
2022/04/19 08:22:31;;;;;;;;;;;14.80;49.60;;;;;;5042782;28;20006;-74
2022/04/19 08:24:56;;;;;;;;;;;15.00;51.20;;;;;;5058337;28;20001;-74
2022/04/19 08:27:22;;;;;;;;;;;15.20;50.70;;;;;;5092800;28;20352;-74
2022/04/19 08:29:48;;;;;;;;;;;15.30;52.40;;;;;;5058108;28;19920;-74
2022/04/19 08:32:14;;;;;;;;;;;15.20;50.60;;;;;;5074803;28;19974;-74
2022/04/19 08:34:43;;;;;;;;;;;15.20;52.60;;;;;;5057594;28;19942;-77
2022/04/19 08:37:12;;;;;;;;;;;15.20;52.50;;;;;;5074978;28;19969;-74
2022/04/19 08:39:40;;;;;;;;;;;15.20;51.00;;;;;;5074900;28;19924;-76
2022/04/19 08:42:06;;;;;;;;;;;15.30;51.80;;;;;;5092551;28;20443;-75
2022/04/19 08:44:36;;;;;;;;;;;15.30;50.30;;;;;;5073646;28;19920;-75
2022/04/19 08:47:04;;;;;;;;;;;15.30;52.80;;;;;;5057443;28;19926;-75
2022/04/19 08:49:30;;;;;;;;;;;15.50;54.20;;;;;;5074957;28;20011;-74
2022/04/19 08:51:57;;;;;;;;;;;15.50;52.20;;;;;;5041173;28;19923;-74
2022/04/19 09:00:11;;;;;;;;;;;15.70;51.10;;;;;;5015305;28;19928;-75
2022/04/19 09:02:45;;;;;;;;;;;16.00;50.00;;;;;;4998893;28;19964;-75
2022/04/19 09:05:40;;;;;;;;;;;16.10;49.00;;;;;;5014951;28;19924;-74
2022/04/19 09:08:12;;;;;;;;;;;15.90;49.90;;;;;;4930737;28;20013;-74
2022/04/19 09:10:38;;;;;;;;;;;16.00;49.70;;;;;;5021892;28;19917;-74
2022/04/19 09:13:06;;;;;;;;;;;15.90;50.50;;;;;;5075993;28;19920;-74
2022/04/19 09:15:35;;;;;;;;;;;16.20;51.00;;;;;;5059012;28;20365;-75
2022/04/19 09:18:01;;;;;;;;;;;16.10;50.40;;;;;;5075721;28;19969;-74
2022/04/19 09:20:26;;;;;;;;;;;16.20;49.60;;;;;;5076206;28;19920;-73
2022/04/19 09:23:11;;;;;;;;;;;16.50;50.60;;;;;;5041978;28;19978;-75
2022/04/19 09:25:37;;;;;;;;;;;16.60;49.80;;;;;;5075779;28;19920;-75
2022/04/19 09:28:13;;;;;;;;;;;16.60;50.30;;;;;;5075712;28;19920;-75
2022/04/19 09:30:39;;;;;;;;;;;16.60;46.90;;;;;;5059081;28;19963;-75
2022/04/19 09:33:15;;;;;;;;;;;16.60;47.50;;;;;;5058946;28;20038;-75
2022/04/19 09:35:47;;;;;;;;;;;16.60;47.30;;;;;;5075960;28;19920;-75
2022/04/19 09:38:13;;;;;;;;;;;16.50;46.30;;;;;;5075315;28;19920;-75
2022/04/19 09:40:41;;;;;;;;;;;16.60;46.80;;;;;;5058651;28;19927;-75
2022/04/19 09:43:17;;;;;;;;;;;16.40;45.90;;;;;;5061846;28;19923;-74
2022/04/19 09:45:46;;;;;;;;;;;16.30;47.10;;;;;;5077149;28;19920;-74
2022/04/19 09:48:16;;;;;;;;;;;16.40;46.60;;;;;;5075041;28;19916;-75
2022/04/19 09:50:47;;;;;;;;;;;16.40;47.00;;;;;;5058907;28;20373;-74
2022/04/19 09:53:16;;;;;;;;;;;16.40;46.70;;;;;;5075476;28;19920;-76
2022/04/19 09:56:05;;;;;;;;;;;16.60;46.00;;;;;;5075468;28;19920;-75
2022/04/19 09:58:50;;;;;;;;;;;16.80;44.80;;;;;;5031918;28;19920;-74
2022/04/19 10:09:47;;;;;;;;;;;17.00;47.10;;;;;;5074976;28;19995;-73
2022/04/19 10:12:25;;;;;;;;;;;17.00;47.20;;;;;;5075417;28;20022;-75
2022/04/19 10:14:51;;;;;;;;;;;17.20;47.80;;;;;;5093164;28;19922;-73
2022/04/19 10:17:20;;;;;;;;;;;17.20;47.20;;;;;;5074752;28;19916;-73
2022/04/19 10:19:50;;;;;;;;;;;17.20;46.90;;;;;;5074893;28;19920;-73
2022/04/19 10:22:20;;;;;;;;;;;17.30;45.00;;;;;;5075011;28;19924;-74
2022/04/19 10:24:52;;;;;;;;;;;17.10;44.10;;;;;;5059068;28;19927;-76
2022/04/19 10:27:17;;;;;;;;;;;17.20;43.10;;;;;;5058840;28;19928;-78
2022/04/19 10:29:44;;;;;;;;;;;17.10;43.80;;;;;;5076665;28;19973;-75
2022/04/19 10:32:11;;;;;;;;;;;17.20;44.50;;;;;;5096814;28;19920;-71
2022/04/19 10:34:38;;;;;;;;;;;17.20;45.00;;;;;;5078977;28;19923;-74
2022/04/19 10:37:23;;;;;;;;;;;17.00;43.10;;;;;;5062007;28;20433;-74
2022/04/19 10:39:50;;;;;;;;;;;17.00;44.50;;;;;;5079044;28;19927;-76
2022/04/19 10:42:47;;;;;;;;;;;17.00;44.80;;;;;;5078821;28;20385;-75
2022/04/19 10:45:12;;;;;;;;;;;17.00;43.90;;;;;;5062210;28;19974;-74
2022/04/19 10:47:53;;;;;;;;;;;17.10;43.80;;;;;;5078513;28;19967;-75
2022/04/19 10:50:47;;;;;;;;;;;17.30;40.50;;;;;;5051777;28;19998;-74
2022/04/19 10:53:32;;;;;;;;;;;17.10;39.90;;;;;;5074820;28;20388;-71
2022/04/19 10:56:06;;;;;;;;;;;17.20;39.40;;;;;;5075606;28;19961;-70
2022/04/19 10:58:42;;;;;;;;;;;17.30;39.10;;;;;;5075020;28;19950;-71
2022/04/19 11:01:38;;;;;;;;;;;17.10;39.60;;;;;;5075984;28;19985;-72
2022/04/19 11:04:52;;;;;;;;;;;;;;;;;;;;;
2022/04/19 11:07:37;;;;;;;;;;;17.40;38.80;;;;;;5073823;28;20415;-69
2022/04/19 11:10:03;;;;;;;;;;;17.30;39.30;;;;;;5073898;28;19962;-70
2022/04/19 11:13:13;;;;;;;;;;;;;;;;;;;;;
2022/04/19 11:23:57;;;;;;;;;;;;;;;;;;;;;
2022/04/19 11:29:57;;;;;;;;;;;17.30;40.30;;;;;;5032073;28;19932;-72
2022/04/19 11:47:56;;;;;;;;;;;;;;;;;;;;;
2022/04/19 12:12:23;;;;;;;;;;;17.40;38.90;;;;;;5031927;28;19919;-71
2022/04/19 12:15:00;;;;;;;;;;;17.30;40.70;;;;;;5015463;28;20026;-71
2022/04/19 12:17:26;;;;;;;;;;;17.30;40.90;;;;;;4999662;28;19928;-71
2022/04/19 12:20:04;;;;;;;;;;;17.30;41.30;;;;;;4999436;28;20379;-71
2022/04/19 12:22:37;;;;;;;;;;;17.20;41.30;;;;;;5015595;28;19960;-72
2022/04/19 12:25:09;;;;;;;;;;;17.30;41.90;;;;;;5015514;28;20007;-72
2022/04/19 12:27:40;;;;;;;;;;;17.40;41.90;;;;;;5016012;28;19967;-71
2022/04/19 12:43:43;;;;;;;;;;;17.50;43.50;;;;;;5070733;28;19915;-74
2022/04/19 12:46:09;;;;;;;;;;;17.30;44.30;;;;;;5055444;28;19916;-72
2022/04/19 12:48:34;;;;;;;;;;;17.20;44.00;;;;;;5065081;28;20046;-71
2022/04/19 12:51:12;;;;;;;;;;;17.50;46.10;;;;;;5075686;28;19924;-71
2022/04/19 12:53:43;;;;;;;;;;;17.40;46.30;;;;;;5093365;28;20042;-71
2022/04/19 12:56:12;;;;;;;;;;;17.60;46.00;;;;;;5076423;28;20053;-75
2022/04/19 12:58:44;;;;;;;;;;;17.50;45.20;;;;;;5076133;28;20378;-76
2022/04/19 13:01:10;;;;;;;;;;;17.40;44.40;;;;;;5076312;28;19916;-75
2022/04/19 13:03:35;;;;;;;;;;;17.50;46.90;;;;;;5076508;28;20310;-74
2022/04/19 13:14:15;;;;;;;;;;;17.40;45.70;;;;;;5088973;28;19927;-75
2022/04/19 13:16:40;;;;;;;;;;;17.40;45.50;;;;;;5075956;28;20343;-75
2022/04/19 13:19:06;;;;;;;;;;;17.70;45.30;;;;;;5059844;28;19920;-75
2022/04/19 13:21:31;;;;;;;;;;;17.60;44.70;;;;;;5059527;28;19920;-75
2022/04/19 13:23:57;;;;;;;;;;;17.50;45.50;;;;;;5058917;28;19920;-75
2022/04/19 13:26:23;;;;;;;;;;;17.40;46.40;;;;;;5059287;28;19923;-75
2022/04/19 13:28:49;;;;;;;;;;;17.50;46.00;;;;;;5075706;28;20396;-76
2022/04/19 13:31:15;;;;;;;;;;;17.40;45.50;;;;;;5075533;28;19920;-74
2022/04/19 13:33:41;;;;;;;;;;;17.30;44.80;;;;;;5075147;28;19927;-75
2022/04/19 13:36:07;;;;;;;;;;;17.30;45.50;;;;;;5058785;28;20385;-78
2022/04/19 13:38:35;;;;;;;;;;;17.40;47.00;;;;;;5076272;28;19920;-75
2022/04/19 13:41:01;;;;;;;;;;;17.30;44.50;;;;;;5058978;28;20010;-69
2022/04/19 13:43:27;;;;;;;;;;;17.40;45.80;;;;;;5093765;28;20377;-70
2022/04/19 13:45:52;;;;;;;;;;;17.50;45.90;;;;;;5060515;28;19981;-68
2022/04/19 13:48:18;;;;;;;;;;;17.40;46.40;;;;;;5076139;28;20362;-69
2022/04/19 13:50:44;;;;;;;;;;;17.30;44.20;;;;;;5093666;28;19964;-70
2022/04/19 13:53:10;;;;;;;;;;;17.40;45.70;;;;;;5074624;28;20366;-70
2022/04/19 13:55:36;;;;;;;;;;;17.50;45.90;;;;;;5042223;28;19938;-69
2022/04/19 13:58:02;;;;;;;;;;;17.60;41.60;;;;;;5075722;28;19963;-69
2022/04/19 14:00:28;;;;;;;;;;;17.50;43.60;;;;;;5075579;28;20344;-71
2022/04/19 14:02:54;;;;;;;;;;;17.60;43.90;;;;;;5074606;28;19977;-70
2022/04/19 14:05:20;;;;;;;;;;;17.60;44.60;;;;;;5061813;28;19938;-70
2022/04/19 14:07:46;;;;;;;;;;;17.60;44.50;;;;;;5061582;28;19920;-73
2022/04/19 14:10:12;;;;;;;;;;;17.60;43.90;;;;;;5078579;28;19916;-72
2022/04/19 14:12:38;;;;;;;;;;;17.50;46.00;;;;;;5045180;28;19926;-70
2022/04/19 14:15:04;;;;;;;;;;;17.60;44.20;;;;;;5061774;28;19920;-74
2022/04/19 14:17:30;;;;;;;;;;;17.60;44.30;;;;;;5062066;28;20032;-75
2022/04/19 14:26:30;;;;;;;;;;;17.80;46.00;;;;;;5077986;28;19955;-76
2022/04/19 14:54:09;;;;;;;;;;;18.60;49.60;;;;;;4954286;28;20364;-79
2022/04/19 14:56:41;;;;;;;;;;;18.50;49.40;;;;;;4936285;29;19919;-74
2022/04/19 14:59:06;;;;;;;;;;;18.40;50.30;;;;;;4920772;29;19919;-72
2022/04/19 15:01:35;;;;;;;;;;;18.80;49.50;;;;;;4989184;28;19923;-72
2022/04/19 15:04:01;;;;;;;;;;;18.60;49.60;;;;;;4998660;28;19916;-70
2022/04/19 15:06:26;;;;;;;;;;;18.50;50.00;;;;;;5040742;28;19955;-70
2022/04/19 15:08:52;;;;;;;;;;;18.60;49.40;;;;;;5076699;28;19970;-70
2022/04/19 15:11:17;;;;;;;;;;;18.40;50.60;;;;;;5076596;28;20016;-72
2022/04/19 15:13:44;;;;;;;;;;;18.60;49.60;;;;;;5076429;28;19924;-70
2022/04/19 15:16:10;;;;;;;;;;;18.30;50.30;;;;;;5093565;28;20447;-71
2022/04/19 15:18:35;;;;;;;;;;;18.50;48.80;;;;;;5076709;28;19967;-72
2022/04/19 15:21:01;;;;;;;;;;;18.60;48.70;;;;;;5059805;28;19920;-71
2022/04/19 15:23:26;;;;;;;;;;;18.60;47.60;;;;;;5076835;28;19927;-70
2022/04/19 15:25:52;;;;;;;;;;;18.00;49.40;;;;;;5079411;28;20002;-67
2022/04/19 15:28:21;;;;;;;;;;;18.10;49.60;;;;;;5094884;28;19920;-76
2022/04/19 15:30:46;;;;;;;;;;;18.10;49.20;;;;;;5076816;28;20318;-75
2022/04/19 15:33:12;;;;;;;;;;;18.20;48.90;;;;;;5076225;28;20061;-76
2022/04/19 15:35:38;;;;;;;;;;;17.90;49.10;;;;;;5058818;28;20278;-73
2022/04/19 15:38:04;;;;;;;;;;;17.70;49.40;;;;;;5076628;28;19920;-75
2022/04/19 15:40:30;;;;;;;;;;;17.80;51.20;;;;;;5076064;28;19993;-74
2022/04/19 15:42:55;;;;;;;;;;;18.40;49.10;;;;;;5075804;28;19920;-73
2022/04/19 15:45:21;;;;;;;;;;;18.10;48.70;;;;;;5083508;28;19926;-75
2022/04/19 15:47:46;;;;;;;;;;;17.90;49.30;;;;;;5092892;28;20026;-74
2022/04/19 15:50:12;;;;;;;;;;;18.00;49.50;;;;;;5077188;28;19973;-78
2022/04/19 15:52:38;;;;;;;;;;;18.00;48.50;;;;;;5059520;28;19927;-74
2022/04/19 15:55:03;;;;;;;;;;;17.90;49.40;;;;;;5076641;28;19926;-73
2022/04/19 15:57:29;;;;;;;;;;;17.90;49.10;;;;;;5076749;28;19943;-72
2022/04/19 16:00:33;;;;;;;;;;;17.80;50.70;;;;;;5077284;28;20010;-77
2022/04/19 16:03:48;;;;;;;;;;;17.50;51.20;;;;;;5071628;28;19927;-76
2022/04/19 16:06:14;;;;;;;;;;;16.90;51.70;;;;;;5083165;28;19916;-75
2022/04/19 16:08:40;;;;;;;;;;;16.20;55.10;;;;;;5080620;28;19923;-79
2022/04/19 16:11:05;;;;;;;;;;;15.90;55.90;;;;;;5092428;28;20565;-71
2022/04/19 16:13:31;;;;;;;;;;;15.50;56.50;;;;;;5090314;28;20266;-74
2022/04/19 16:23:20;;;;;;;;;;;15.20;57.50;;;;;;5067553;28;19920;-78
2022/04/19 16:24:10;;;;;;;;;;;14.70;61.00;;;;;;5075940;28;19920;-77
2022/04/19 16:26:36;;;;;;;;;;;14.60;60.40;;;;;;5075673;28;19974;-77
2022/04/19 16:29:02;;;;;;;;;;;14.40;61.10;;;;;;5076015;28;19920;-77
2022/04/19 16:31:27;;;;;;;;;;;14.30;61.50;;;;;;5075029;28;19927;-77
2022/04/19 16:33:53;;;;;;;;;;;14.20;62.30;;;;;;5056304;28;19920;-75
2022/04/19 16:36:19;;;;;;;;;;;14.10;62.90;;;;;;5055758;28;19920;-77
2022/04/19 16:38:44;;;;;;;;;;;14.00;62.50;;;;;;5057236;28;19920;-77
2022/04/19 16:41:32;;;;;;;;;;;13.90;62.80;;;;;;5076114;28;19984;-77
2022/04/19 16:44:16;;;;;;;;;;;13.80;62.40;;;;;;5061085;28;19965;-77
2022/04/19 16:46:42;;;;;;;;;;;13.80;62.90;;;;;;5063603;28;19920;-77
2022/04/19 16:49:09;;;;;;;;;;;13.70;62.50;;;;;;5061405;28;19916;-75
2022/04/19 16:51:35;;;;;;;;;;;13.60;63.70;;;;;;5073905;28;20382;-78
2022/04/19 16:54:00;;;;;;;;;;;13.50;64.30;;;;;;5073606;28;19934;-77
2022/04/19 16:56:26;;;;;;;;;;;13.40;65.00;;;;;;5059516;28;19920;-76